LEMG/AGP METAR and TAF weather

Enter ICAO airport designator
Station Type Date Time Source
LEMG METAR 2019/06/26 16:30 UTC NOAA

LEMG 261630Z 13011KT 100V160 CAVOK 27/18 Q1015 NOSIG


Station Type Date Time Source
LEMG Decoded METAR 2019/06/26 16:30 UTC NOAA

Malaga / Aeropuerto, Spain (LEMG) 36-40N 004-29W 7M
Jun 26, 2019 - 12:30 PM EDT / 2019.06.26 1630 UTC
Wind: from the SE (130 degrees) at 13 MPH (11 KT) (direction variable):0
Visibility: greater than 7 mile(s):0
Temperature: 80 F (27 C)
Dew Point: 64 F (18 C)
Relative Humidity: 57%
Pressure (altimeter): 29.97 in. Hg (1015 hPa)
ob: LEMG 261630Z 13011KT 100V160 CAVOK 27/18 Q1015 NOSIG
cycle: 16

Station Type Date Time Source
LEMG TAF 2019/06/26 12:27 UTC NOAA

TAF TAF LEMG 261100Z 2612/2712 13010KT 9999 FEW020 TX27/2613Z TN19/2706Z
BECMG 2621/2623 29006KT
BECMG 2702/2704 VRB02KT
BECMG 2707/2709 13008KT

Example: see airport list